Time;durP1;ratioP1;P1;durP2;ratioP2;P2;SDS_P1;SDS_P2;PMS_P1;PMS_P2;Temp;Humidity;BMP_temperature;BMP_pressure;BME280_temperature;BME280_humidity;BME280_pressure;Samples;Min_cycle;Max_cycle;Signal;HPM_P1;HPM_P2
2022/07/09 00:01:29;;;;;;;5.27;2.40;;;15.80;99.90;;;;;;4981550;28;20196;-86
2022/07/09 00:03:55;;;;;;;4.70;2.50;;;14.10;99.90;;;;;;5023022;23;20569;-84
2022/07/09 00:06:20;;;;;;;3.27;2.03;;;14.10;99.90;;;;;;5030312;28;20187;-84
2022/07/09 00:08:46;;;;;;;10.80;2.33;;;14.10;99.90;;;;;;5026213;28;20494;-83
2022/07/09 00:11:11;;;;;;;4.30;2.37;;;14.00;99.90;;;;;;5021147;28;20254;-83
2022/07/09 00:13:37;;;;;;;14.30;2.90;;;13.90;99.90;;;;;;5027243;28;20232;-83
2022/07/09 00:16:03;;;;;;;6.90;2.50;;;13.90;99.90;;;;;;5030134;28;20206;-84
2022/07/09 00:18:28;;;;;;;4.67;2.97;;;13.80;99.90;;;;;;5025268;28;20202;-84
2022/07/09 00:20:55;;;;;;;3.90;2.40;;;13.70;99.90;;;;;;5029132;28;20175;-85
2022/07/09 00:23:21;;;;;;;5.88;2.70;;;13.70;99.90;;;;;;5024097;28;20196;-83
2022/07/09 00:25:46;;;;;;;6.47;2.83;;;13.70;99.90;;;;;;5021542;28;20264;-83
2022/07/09 00:28:12;;;;;;;7.70;2.63;;;13.70;99.90;;;;;;5023612;28;20209;-84
2022/07/09 00:30:37;;;;;;;11.77;2.57;;;13.70;99.90;;;;;;5021185;28;20255;-83
2022/07/09 00:33:03;;;;;;;4.93;3.20;;;13.70;99.90;;;;;;5025533;28;20193;-84
2022/07/09 00:35:29;;;;;;;5.80;2.87;;;13.70;99.90;;;;;;5025477;28;20202;-84
2022/07/09 00:37:54;;;;;;;6.97;3.07;;;13.60;99.90;;;;;;5026572;28;20199;-83
2022/07/09 00:40:20;;;;;;;2.90;2.00;;;13.60;99.90;;;;;;5026709;28;20195;-84
2022/07/09 00:42:46;;;;;;;2.70;2.47;;;13.60;99.90;;;;;;5026587;28;20258;-84
2022/07/09 00:45:11;;;;;;;4.30;2.50;;;13.60;99.90;;;;;;5030379;28;20178;-83
2022/07/09 00:47:37;;;;;;;6.80;2.70;;;13.60;99.90;;;;;;5033343;28;20189;-83
2022/07/09 00:50:04;;;;;;;9.20;2.50;;;13.60;99.90;;;;;;5025979;28;20835;-81
2022/07/09 00:52:30;;;;;;;5.13;2.72;;;13.60;99.90;;;;;;5023634;28;20256;-82
2022/07/09 00:55:00;;;;;;;11.68;3.50;;;13.60;99.90;;;;;;5024695;28;20259;-82
2022/07/09 00:57:25;;;;;;;5.78;2.80;;;13.60;99.90;;;;;;5023739;28;20202;-82
2022/07/09 00:59:51;;;;;;;9.40;2.73;;;13.60;99.90;;;;;;5021279;28;20201;-82
2022/07/09 01:02:20;;;;;;;12.00;2.90;;;13.60;99.90;;;;;;5020355;28;20184;-82
2022/07/09 01:04:45;;;;;;;3.38;2.63;;;13.70;99.90;;;;;;5024481;28;20206;-82
2022/07/09 01:07:11;;;;;;;3.60;2.60;;;13.60;99.90;;;;;;5024249;28;20288;-81
2022/07/09 01:09:38;;;;;;;5.10;3.20;;;13.60;99.90;;;;;;5024733;28;20186;-81
2022/07/09 01:12:05;;;;;;;6.43;2.78;;;13.50;99.90;;;;;;5018303;28;20269;-81
2022/07/09 01:14:30;;;;;;;2.72;2.45;;;13.40;99.90;;;;;;5020307;28;20237;-82
2022/07/09 01:17:04;;;;;;;3.30;3.00;;;13.30;99.90;;;;;;5022822;28;20178;-81
2022/07/09 01:19:32;;;;;;;13.05;3.28;;;13.30;99.90;;;;;;5020493;28;20196;-82
2022/07/09 01:21:58;;;;;;;6.03;3.90;;;13.20;99.90;;;;;;5020678;28;20237;-82
2022/07/09 01:24:24;;;;;;;5.38;3.58;;;13.20;99.90;;;;;;5023455;28;20182;-82
2022/07/09 01:26:51;;;;;;;4.57;3.22;;;13.10;99.90;;;;;;5020790;28;20317;-82
2022/07/09 01:29:17;;;;;;;6.68;3.70;;;13.10;99.90;;;;;;5021549;28;20591;-82
2022/07/09 01:31:42;;;;;;;5.30;2.80;;;13.00;99.90;;;;;;5024930;28;20217;-83
2022/07/09 01:34:08;;;;;;;7.93;3.30;;;13.00;99.90;;;;;;5027496;28;20194;-82
2022/07/09 01:36:33;;;;;;;5.53;3.00;;;12.80;99.90;;;;;;5021834;28;20221;-85
2022/07/09 01:38:59;;;;;;;5.87;3.20;;;12.70;99.90;;;;;;5024859;28;20205;-85
2022/07/09 01:41:25;;;;;;;3.90;2.67;;;12.70;99.90;;;;;;5023629;28;20183;-87
2022/07/09 01:43:50;;;;;;;5.30;3.00;;;12.60;99.90;;;;;;5023033;28;20289;-84
2022/07/09 01:46:15;;;;;;;4.90;3.30;;;12.60;99.90;;;;;;5030153;28;20211;-85
2022/07/09 01:48:42;;;;;;;5.00;3.87;;;12.40;99.90;;;;;;5025493;28;20204;-84
2022/07/09 01:51:09;;;;;;;7.00;3.03;;;12.40;99.90;;;;;;5025748;28;20174;-84
2022/07/09 01:53:34;;;;;;;5.60;3.08;;;12.40;99.90;;;;;;5029372;28;20190;-84
2022/07/09 01:56:07;;;;;;;8.27;4.40;;;12.40;99.90;;;;;;5022416;28;20202;-83
2022/07/09 01:58:33;;;;;;;4.50;2.83;;;12.50;99.90;;;;;;5034833;28;20191;-83
2022/07/09 02:00:59;;;;;;;4.22;3.03;;;12.60;99.90;;;;;;5027209;28;20273;-82
2022/07/09 02:03:24;;;;;;;3.93;3.30;;;12.60;99.90;;;;;;5021941;28;20289;-82
2022/07/09 02:05:50;;;;;;;4.47;3.00;;;12.60;99.90;;;;;;5023382;28;20281;-82
2022/07/09 02:08:16;;;;;;;5.60;3.53;;;12.60;99.90;;;;;;5020079;28;20206;-82
2022/07/09 02:10:41;;;;;;;5.40;2.57;;;12.50;99.90;;;;;;5019290;28;20557;-81
2022/07/09 02:13:07;;;;;;;13.33;3.37;;;12.50;99.90;;;;;;5026750;28;20205;-81
2022/07/09 02:15:33;;;;;;;4.20;3.27;;;12.40;99.90;;;;;;5020412;28;20226;-81
2022/07/09 02:17:58;;;;;;;3.85;3.42;;;12.30;99.90;;;;;;5019941;28;20671;-81
2022/07/09 02:20:24;;;;;;;7.27;3.63;;;12.20;99.90;;;;;;5025618;28;20201;-81
2022/07/09 02:22:50;;;;;;;4.55;3.22;;;12.20;99.90;;;;;;5019790;28;20186;-83
2022/07/09 02:25:16;;;;;;;4.00;3.60;;;12.20;99.90;;;;;;5025568;28;20269;-83
2022/07/09 02:27:41;;;;;;;5.90;3.40;;;12.20;99.90;;;;;;5024790;28;20237;-81
2022/07/09 02:30:08;;;;;;;5.57;3.63;;;12.30;99.90;;;;;;5019400;28;20252;-82
2022/07/09 02:32:34;;;;;;;5.10;3.85;;;12.30;99.90;;;;;;5020519;28;20186;-82
2022/07/09 02:34:59;;;;;;;5.75;4.53;;;12.30;99.90;;;;;;5020989;28;20695;-81
2022/07/09 02:37:25;;;;;;;7.97;3.77;;;12.30;99.90;;;;;;5019914;28;20284;-82
2022/07/09 02:39:50;;;;;;;7.80;4.20;;;12.40;99.90;;;;;;5024238;28;20198;-82
2022/07/09 02:42:16;;;;;;;9.90;4.30;;;12.40;99.90;;;;;;5023532;28;20313;-82
2022/07/09 02:44:43;;;;;;;8.77;5.30;;;12.40;99.90;;;;;;5021421;28;20173;-82
2022/07/09 02:47:09;;;;;;;5.47;4.47;;;12.40;99.90;;;;;;5022338;28;20269;-82
2022/07/09 02:49:34;;;;;;;6.23;4.70;;;12.40;99.90;;;;;;5025460;28;20218;-82
2022/07/09 02:52:01;;;;;;;5.60;5.00;;;12.40;99.90;;;;;;5020189;28;20283;-83
2022/07/09 02:54:27;;;;;;;6.78;4.30;;;12.40;99.90;;;;;;5021034;28;20198;-82
2022/07/09 02:56:53;;;;;;;6.47;4.25;;;12.50;99.90;;;;;;5029044;28;20583;-82
2022/07/09 02:59:18;;;;;;;9.50;3.70;;;12.50;99.90;;;;;;5022572;28;20189;-81
2022/07/09 03:01:44;;;;;;;3.97;3.27;;;12.40;99.90;;;;;;5022982;28;20201;-82
2022/07/09 03:04:10;;;;;;;4.70;3.40;;;12.40;99.90;;;;;;5025020;28;20194;-84
2022/07/09 03:06:36;;;;;;;4.60;3.10;;;12.40;99.90;;;;;;5021712;28;20188;-84
2022/07/09 03:09:02;;;;;;;7.90;4.10;;;12.40;99.90;;;;;;5023532;28;20202;-84
2022/07/09 03:11:27;;;;;;;6.43;3.60;;;12.40;99.90;;;;;;5025742;28;20184;-83
2022/07/09 03:13:54;;;;;;;9.40;4.60;;;12.40;99.90;;;;;;5021929;28;20440;-82
2022/07/09 03:16:20;;;;;;;4.38;3.65;;;12.40;99.90;;;;;;5028177;28;20771;-84
2022/07/09 03:18:46;;;;;;;5.07;4.20;;;12.40;99.90;;;;;;5018336;28;20200;-82
2022/07/09 03:21:11;;;;;;;5.07;3.37;;;12.40;99.90;;;;;;5021891;28;20174;-84
2022/07/09 03:23:39;;;;;;;3.60;3.30;;;12.40;99.90;;;;;;5025581;28;20181;-84
2022/07/09 03:26:05;;;;;;;9.48;3.72;;;12.90;99.90;;;;;;5018684;28;20574;-84
2022/07/09 03:28:31;;;;;;;3.65;3.13;;;12.40;99.90;;;;;;5023620;28;20951;-83
2022/07/09 03:30:56;;;;;;;11.20;4.10;;;12.40;99.90;;;;;;5023563;28;20182;-83
2022/07/09 03:33:22;;;;;;;8.83;4.50;;;12.40;99.90;;;;;;5021993;28;20190;-83
2022/07/09 03:35:48;;;;;;;7.80;5.17;;;12.40;99.90;;;;;;5020396;28;20306;-82
2022/07/09 03:38:13;;;;;;;5.17;2.93;;;12.40;99.90;;;;;;5020962;28;20460;-83
2022/07/09 03:40:39;;;;;;;6.20;3.37;;;12.40;99.90;;;;;;5021471;28;20194;-84
2022/07/09 03:43:04;;;;;;;5.77;3.33;;;12.30;99.90;;;;;;5023915;28;20748;-83
2022/07/09 03:45:30;;;;;;;6.83;3.30;;;12.20;99.90;;;;;;5021663;28;20287;-83
2022/07/09 03:47:55;;;;;;;11.10;4.63;;;12.10;99.90;;;;;;5021592;28;21151;-82
2022/07/09 03:50:21;;;;;;;8.40;4.23;;;12.00;99.90;;;;;;5022396;28;20226;-82
2022/07/09 03:52:46;;;;;;;8.70;4.80;;;11.90;99.90;;;;;;5020463;28;20200;-83
2022/07/09 03:55:12;;;;;;;7.53;4.37;;;12.00;99.90;;;;;;5017879;28;20205;-82
2022/07/09 03:57:39;;;;;;;6.57;4.30;;;12.10;99.90;;;;;;5019419;28;20222;-82
2022/07/09 04:00:06;;;;;;;7.47;3.95;;;12.20;99.90;;;;;;5022996;28;20246;-82
2022/07/09 04:02:32;;;;;;;4.68;3.28;;;12.40;99.90;;;;;;5022279;28;20182;-83
2022/07/09 04:04:58;;;;;;;8.40;4.03;;;12.50;99.90;;;;;;5020280;28;20232;-81
2022/07/09 04:07:26;;;;;;;3.60;3.25;;;12.60;99.90;;;;;;5016948;28;20456;-82
2022/07/09 04:09:53;;;;;;;5.85;4.20;;;12.80;99.90;;;;;;5027489;28;20657;-82
2022/07/09 04:12:18;;;;;;;5.03;3.58;;;13.00;99.90;;;;;;5019556;28;20544;-82
2022/07/09 04:14:44;;;;;;;5.73;3.50;;;13.30;99.90;;;;;;5022884;28;20202;-82
2022/07/09 04:17:09;;;;;;;7.00;4.20;;;13.60;99.90;;;;;;5030117;28;20203;-83
2022/07/09 04:19:35;;;;;;;9.50;3.20;;;14.00;99.90;;;;;;5030807;28;20174;-83
2022/07/09 04:22:02;;;;;;;12.93;4.17;;;14.50;99.90;;;;;;5020158;28;20625;-83
2022/07/09 04:24:27;;;;;;;4.90;3.40;;;15.50;99.90;;;;;;5022649;28;20174;-82
2022/07/09 04:26:53;;;;;;;6.80;2.90;;;16.70;99.90;;;;;;5024530;28;20434;-82
2022/07/09 04:29:18;;;;;;;5.23;3.00;;;17.30;99.90;;;;;;5027520;28;21035;-82
2022/07/09 04:31:44;;;;;;;5.20;2.60;;;17.80;99.90;;;;;;5021739;28;20232;-82
2022/07/09 04:34:09;;;;;;;3.53;2.60;;;18.60;99.90;;;;;;5025725;28;21282;-82
2022/07/09 04:36:35;;;;;;;6.83;3.47;;;20.10;99.90;;;;;;5025403;28;20850;-81
2022/07/09 04:39:01;;;;;;;7.07;4.03;;;21.10;99.90;;;;;;5024040;28;20312;-81
2022/07/09 04:41:28;;;;;;;5.70;3.60;;;20.80;99.90;;;;;;5022676;28;20174;-81
2022/07/09 04:43:53;;;;;;;11.73;3.97;;;20.00;99.90;;;;;;5022167;28;20231;-83
2022/07/09 04:46:21;;;;;;;6.67;3.50;;;19.70;99.90;;;;;;5023405;28;20472;-82
2022/07/09 04:48:47;;;;;;;6.60;3.83;;;20.50;99.90;;;;;;5022868;28;20650;-82
2022/07/09 04:51:12;;;;;;;6.10;4.03;;;21.90;99.90;;;;;;5021213;28;20453;-82
2022/07/09 04:53:37;;;;;;;5.07;4.57;;;23.20;99.90;;;;;;5021570;28;20190;-83
2022/07/09 04:56:03;;;;;;;5.17;3.80;;;24.60;99.90;;;;;;5021654;28;20244;-82
2022/07/09 04:58:29;;;;;;;12.70;4.57;;;26.30;99.90;;;;;;5025476;28;20233;-83
2022/07/09 05:00:55;;;;;;;3.67;3.10;;;27.40;93.10;;;;;;5023394;28;20185;-83
2022/07/09 05:03:20;;;;;;;4.30;3.90;;;28.00;89.20;;;;;;5021606;28;20702;-83
2022/07/09 05:05:46;;;;;;;8.53;3.60;;;29.00;85.30;;;;;;5028573;28;20456;-82
2022/07/09 05:08:12;;;;;;;6.00;3.70;;;31.00;82.00;;;;;;5032367;28;20206;-82
2022/07/09 05:10:38;;;;;;;5.60;3.57;;;33.00;72.80;;;;;;5022656;28;20195;-81
2022/07/09 05:13:03;;;;;;;8.00;3.57;;;34.60;63.80;;;;;;5022134;28;20191;-82
2022/07/09 05:15:32;;;;;;;6.10;3.50;;;35.90;57.80;;;;;;5024294;28;20459;-82
2022/07/09 05:17:57;;;;;;;5.63;4.33;;;36.90;53.50;;;;;;5020795;28;20745;-81
2022/07/09 05:20:24;;;;;;;7.20;4.87;;;36.40;49.50;;;;;;5034659;28;20439;-82
2022/07/09 05:22:49;;;;;;;9.50;4.93;;;36.10;48.80;;;;;;5018534;28;20275;-83
2022/07/09 05:25:15;;;;;;;6.53;6.03;;;36.90;47.50;;;;;;5018634;28;20462;-82
2022/07/09 05:27:45;;;;;;;8.63;7.40;;;36.70;46.00;;;;;;5020973;28;20551;-82
2022/07/09 05:30:15;;;;;;;11.33;7.70;;;35.00;46.20;;;;;;5025140;28;20187;-83
2022/07/09 05:32:42;;;;;;;7.13;6.57;;;34.80;48.80;;;;;;5033637;28;20458;-81
2022/07/09 05:35:08;;;;;;;8.37;7.67;;;35.50;47.00;;;;;;5018595;28;20572;-83
2022/07/09 05:37:34;;;;;;;8.20;7.57;;;35.70;46.40;;;;;;5019079;28;20491;-82
2022/07/09 05:40:05;;;;;;;8.20;7.70;;;35.90;46.50;;;;;;5024552;28;20470;-83
2022/07/09 05:42:31;;;;;;;7.97;7.37;;;36.80;44.70;;;;;;5026300;28;20529;-82
2022/07/09 05:44:56;;;;;;;7.67;7.23;;;37.10;45.00;;;;;;5023461;28;20570;-82
2022/07/09 05:47:22;;;;;;;8.63;7.93;;;37.90;43.40;;;;;;5018353;28;20462;-82
2022/07/09 05:49:47;;;;;;;9.80;9.10;;;39.40;42.20;;;;;;5015911;28;20199;-84
2022/07/09 05:52:13;;;;;;;9.17;8.47;;;39.70;40.40;;;;;;5022126;28;20179;-84
2022/07/09 05:54:38;;;;;;;10.80;10.00;;;40.40;40.00;;;;;;5021745;28;20257;-83
2022/07/09 05:57:04;;;;;;;11.83;11.03;;;42.30;35.90;;;;;;5022207;28;20189;-84
2022/07/09 05:59:30;;;;;;;12.47;11.63;;;42.30;36.30;;;;;;5022749;28;20178;-84
2022/07/09 06:01:55;;;;;;;12.83;12.03;;;42.10;36.00;;;;;;5022825;28;20182;-83
2022/07/09 06:04:21;;;;;;;13.30;12.40;;;42.80;35.90;;;;;;5031115;28;20190;-82
2022/07/09 06:06:47;;;;;;;14.93;13.60;;;43.30;35.30;;;;;;5024614;28;20175;-82
2022/07/09 06:09:12;;;;;;;14.10;12.70;;;44.40;34.90;;;;;;5017575;28;20666;-84
2022/07/09 06:11:38;;;;;;;15.47;14.47;;;45.60;33.50;;;;;;5020927;28;20515;-84
2022/07/09 06:14:04;;;;;;;14.50;13.77;;;46.40;31.70;;;;;;5020300;28;20220;-82
2022/07/09 06:16:29;;;;;;;14.33;13.33;;;47.00;31.60;;;;;;5025955;28;20198;-82
2022/07/09 06:18:55;;;;;;;14.00;13.20;;;45.10;30.00;;;;;;5023467;28;20244;-84
2022/07/09 06:21:20;;;;;;;14.83;13.70;;;43.60;31.10;;;;;;5031741;28;21862;-84
2022/07/09 06:23:46;;;;;;;18.80;17.77;;;40.80;32.10;;;;;;5020404;28;20183;-84
2022/07/09 06:26:11;;;;;;;16.97;15.90;;;39.40;35.40;;;;;;5018768;28;20265;-83
2022/07/09 06:28:37;;;;;;;14.80;14.00;;;38.50;36.70;;;;;;5008345;28;21462;-81
2022/07/09 06:31:03;;;;;;;16.13;15.13;;;39.10;36.10;;;;;;5018725;28;20304;-83
2022/07/09 06:33:29;;;;;;;16.27;14.70;;;38.30;36.10;;;;;;5013483;28;20432;-83
2022/07/09 06:35:54;;;;;;;13.07;12.13;;;34.70;38.70;;;;;;5014089;28;20478;-82
2022/07/09 06:38:20;;;;;;;13.33;10.80;;;32.80;43.30;;;;;;5016673;28;20239;-82
2022/07/09 06:40:46;;;;;;;11.90;10.93;;;32.10;44.40;;;;;;5022490;28;20188;-85
2022/07/09 06:43:12;;;;;;;9.17;8.40;;;32.90;45.20;;;;;;5022909;28;20758;-82
2022/07/09 06:45:38;;;;;;;8.93;8.13;;;33.10;45.50;;;;;;5016032;28;20796;-83
2022/07/09 06:48:04;;;;;;;9.57;8.23;;;34.40;44.90;;;;;;5013976;28;20583;-83
2022/07/09 06:50:30;;;;;;;9.50;8.60;;;34.60;44.20;;;;;;5023709;28;20505;-82
2022/07/09 06:52:55;;;;;;;9.40;8.80;;;36.40;43.20;;;;;;5025700;28;21406;-82
2022/07/09 06:55:21;;;;;;;9.90;9.30;;;38.90;40.80;;;;;;5025418;28;20213;-82
2022/07/09 06:57:47;;;;;;;10.03;9.20;;;40.40;38.90;;;;;;5028928;28;20569;-82
2022/07/09 07:00:13;;;;;;;11.43;10.47;;;41.70;38.50;;;;;;5032537;28;20439;-82
2022/07/09 07:02:39;;;;;;;13.43;12.53;;;42.90;35.20;;;;;;5031870;28;20197;-81
2022/07/09 07:05:05;;;;;;;15.83;14.63;;;44.20;33.80;;;;;;5025386;28;20425;-80
2022/07/09 07:07:30;;;;;;;14.30;13.60;;;42.50;32.80;;;;;;5028630;28;21029;-83
2022/07/09 07:09:56;;;;;;;11.57;10.43;;;39.90;34.00;;;;;;5022100;28;20428;-84
2022/07/09 07:12:21;;;;;;;13.47;12.47;;;38.40;36.60;;;;;;5022393;28;20181;-83
2022/07/09 07:14:47;;;;;;;12.50;11.60;;;38.40;38.60;;;;;;5015894;28;20204;-82
2022/07/09 07:17:12;;;;;;;14.17;13.17;;;38.40;36.30;;;;;;5026146;28;20189;-82
2022/07/09 07:19:39;;;;;;;13.37;12.47;;;38.30;37.20;;;;;;5023033;28;20175;-82
2022/07/09 07:22:04;;;;;;;13.37;12.37;;;37.20;39.00;;;;;;5033137;28;20176;-84
2022/07/09 07:24:30;;;;;;;13.97;12.80;;;37.30;39.70;;;;;;5024331;28;20600;-83
2022/07/09 07:26:56;;;;;;;11.77;11.00;;;38.50;37.00;;;;;;5018803;28;20646;-84
2022/07/09 07:29:22;;;;;;;13.70;12.90;;;38.50;37.50;;;;;;5027963;28;20483;-83
2022/07/09 07:31:48;;;;;;;16.23;14.70;;;39.70;37.50;;;;;;5025065;28;20810;-84
2022/07/09 07:34:14;;;;;;;14.37;13.60;;;39.20;37.10;;;;;;5021888;28;20180;-83
2022/07/09 07:36:39;;;;;;;12.27;11.43;;;39.40;35.70;;;;;;5017425;28;20478;-84
2022/07/09 07:39:05;;;;;;;16.97;16.07;;;40.20;36.10;;;;;;5020192;28;20787;-83
2022/07/09 07:41:30;;;;;;;18.23;16.93;;;41.40;35.20;;;;;;5016743;28;20196;-85
2022/07/09 07:43:56;;;;;;;19.30;18.20;;;41.60;34.30;;;;;;5021220;28;20200;-84
2022/07/09 07:46:21;;;;;;;16.77;15.37;;;40.70;34.90;;;;;;5021070;28;20193;-83
2022/07/09 07:48:47;;;;;;;19.53;18.53;;;40.60;34.90;;;;;;5019395;28;20252;-84
2022/07/09 07:51:13;;;;;;;17.53;16.40;;;41.40;34.40;;;;;;5023704;28;22106;-84
2022/07/09 07:53:38;;;;;;;19.20;18.13;;;41.90;34.80;;;;;;5020386;28;20190;-83
2022/07/09 07:56:05;;;;;;;15.03;13.67;;;42.40;34.00;;;;;;5020183;28;20589;-83
2022/07/09 07:58:31;;;;;;;24.17;22.73;;;42.30;34.00;;;;;;5022889;28;20197;-81
2022/07/09 08:00:57;;;;;;;20.20;18.90;;;;;;;;;;5046327;23;20511;-83
2022/07/09 08:03:23;;;;;;;20.13;19.03;;;41.50;32.90;;;;;;5031172;28;20481;-84
2022/07/09 08:05:48;;;;;;;16.10;15.00;;;40.60;34.00;;;;;;5026926;28;20432;-81
2022/07/09 08:08:14;;;;;;;17.13;16.07;;;42.10;33.70;;;;;;5026967;28;20244;-83
2022/07/09 08:10:40;;;;;;;21.17;20.17;;;41.30;33.70;;;;;;5021362;28;20256;-82
2022/07/09 08:13:05;;;;;;;20.27;19.10;;;42.00;33.80;;;;;;5020835;28;20232;-80
2022/07/09 08:15:31;;;;;;;22.40;21.50;;;42.00;33.50;;;;;;5024929;28;20212;-80
2022/07/09 08:17:57;;;;;;;22.07;21.00;;;;;;;;;;5025720;28;20205;-83
2022/07/09 08:20:23;;;;;;;25.30;23.40;;;42.30;33.30;;;;;;5021636;28;20188;-80
2022/07/09 08:22:48;;;;;;;23.23;22.20;;;44.50;29.60;;;;;;5035583;28;20463;-83
2022/07/09 08:25:14;;;;;;;24.70;23.60;;;44.70;29.90;;;;;;5022558;28;20178;-87
2022/07/09 08:27:40;;;;;;;24.07;22.77;;;43.40;30.00;;;;;;5017292;28;20216;-82
2022/07/09 08:30:06;;;;;;;15.90;14.90;;;39.70;32.30;;;;;;5020731;28;21102;-81
2022/07/09 08:32:32;;;;;;;16.00;15.27;;;40.00;34.00;;;;;;5025397;28;20500;-79
2022/07/09 08:34:57;;;;;;;18.00;16.83;;;;;;;;;;5021166;28;20471;-77
2022/07/09 08:37:23;;;;;;;15.97;15.17;;;40.30;33.80;;;;;;5022444;28;20239;-82
2022/07/09 08:39:48;;;;;;;16.53;15.27;;;41.70;33.00;;;;;;5034820;28;20198;-83
2022/07/09 08:42:14;;;;;;;14.47;13.57;;;39.00;32.80;;;;;;5025627;28;20185;-84
2022/07/09 08:44:46;;;;;;;14.20;13.40;;;40.00;35.60;;;;;;5025247;28;20268;-84
2022/07/09 08:47:13;;;;;;;16.10;15.17;;;41.10;32.20;;;;;;5028269;28;20432;-79
2022/07/09 08:49:40;;;;;;;15.00;14.30;;;42.00;32.00;;;;;;5025529;28;20440;-83
2022/07/09 08:52:06;;;;;;;15.30;14.50;;;41.40;31.60;;;;;;5026950;28;20444;-82
2022/07/09 08:54:33;;;;;;;15.17;14.40;;;40.40;32.60;;;;;;5022269;28;20455;-81
2022/07/09 08:56:59;;;;;;;15.73;14.73;;;41.70;32.50;;;;;;5031068;28;20443;-82
2022/07/09 08:59:24;;;;;;;17.63;16.73;;;41.80;30.80;;;;;;5024651;28;20470;-82
2022/07/09 09:01:53;;;;;;;18.00;17.03;;;42.90;31.70;;;;;;5028457;28;20185;-86
2022/07/09 09:04:18;;;;;;;17.40;16.50;;;41.70;29.90;;;;;;5042199;28;20220;-81
2022/07/09 09:06:44;;;;;;;16.10;15.40;;;39.90;31.80;;;;;;5030293;28;21067;-78
2022/07/09 09:09:17;;;;;;;17.07;16.27;;;39.60;33.80;;;;;;5030586;28;20248;-85
2022/07/09 09:11:42;;;;;;;14.23;13.40;;;38.30;32.60;;;;;;5032747;28;20891;-79
2022/07/09 09:14:21;;;;;;;10.40;9.90;;;36.70;36.00;;;;;;5038176;28;20493;-85
2022/07/09 09:16:47;;;;;;;10.30;9.70;;;34.80;37.60;;;;;;5031221;28;20211;-78
2022/07/09 09:19:13;;;;;;;11.77;10.47;;;34.90;37.40;;;;;;5031351;28;20474;-81
2022/07/09 09:21:39;;;;;;;11.90;11.20;;;36.90;36.90;;;;;;5034379;28;21136;-81
2022/07/09 09:24:05;;;;;;;13.30;12.50;;;37.60;35.80;;;;;;5027915;28;21537;-83
2022/07/09 09:26:30;;;;;;;14.90;14.10;;;38.00;34.70;;;;;;5025955;28;20189;-86
2022/07/09 09:29:01;;;;;;;13.27;12.57;;;38.90;33.90;;;;;;5033741;28;20432;-81
2022/07/09 09:31:34;;;;;;;10.30;9.87;;;37.30;34.30;;;;;;5031046;28;20597;-83
2022/07/09 09:34:08;;;;;;;11.07;10.33;;;34.40;37.70;;;;;;5033094;28;20469;-84
2022/07/09 09:36:36;;;;;;;9.50;8.87;;;33.30;40.00;;;;;;5035020;28;20477;-82
2022/07/09 09:39:14;;;;;;;9.93;9.30;;;33.50;41.00;;;;;;5033204;28;20422;-80
2022/07/09 09:41:47;;;;;;;10.10;9.60;;;34.00;40.80;;;;;;5043912;28;20435;-80
2022/07/09 09:44:25;;;;;;;10.37;9.80;;;37.40;35.70;;;;;;5045320;28;20553;-81
2022/07/09 09:46:52;;;;;;;10.53;9.83;;;37.40;36.10;;;;;;5041057;28;20477;-82
2022/07/09 09:49:17;;;;;;;9.60;9.00;;;34.80;38.00;;;;;;5033712;28;20857;-80
2022/07/09 09:51:55;;;;;;;9.07;8.57;;;33.50;40.10;;;;;;5030520;28;20449;-84
2022/07/09 09:54:22;;;;;;;9.33;8.53;;;33.70;40.10;;;;;;5046896;28;20223;-84
2022/07/09 09:56:49;;;;;;;7.10;6.70;;;31.90;41.50;;;;;;5041774;28;20468;-85
2022/07/09 09:59:15;;;;;;;5.47;4.97;;;31.00;44.40;;;;;;5037190;28;20443;-84
2022/07/09 10:01:42;;;;;;;3.00;1.90;;;29.50;46.40;;;;;;5029748;28;20428;-81
2022/07/09 10:04:11;;;;;;;3.13;2.10;;;28.70;48.00;;;;;;5035671;28;20556;-84
2022/07/09 10:06:38;;;;;;;1.80;1.07;;;27.80;48.90;;;;;;5036328;28;20481;-83
2022/07/09 10:09:05;;;;;;;8.23;1.67;;;27.00;50.80;;;;;;5035999;28;20447;-84
2022/07/09 10:11:42;;;;;;;1.93;1.37;;;27.90;50.20;;;;;;5028240;28;20432;-81
2022/07/09 10:14:14;;;;;;;1.80;1.57;;;29.90;48.80;;;;;;5033930;28;20908;-82
2022/07/09 10:16:41;;;;;;;5.30;4.90;;;31.60;46.40;;;;;;5028935;28;20462;-84
2022/07/09 10:19:07;;;;;;;5.70;5.30;;;33.10;43.20;;;;;;5035697;28;20429;-80
2022/07/09 10:21:38;;;;;;;5.50;4.97;;;32.90;42.80;;;;;;5029274;28;21085;-83
2022/07/09 10:24:05;;;;;;;4.63;4.13;;;33.00;44.20;;;;;;5031649;28;20454;-83
2022/07/09 10:26:44;;;;;;;5.00;4.63;;;31.80;43.90;;;;;;5032557;28;20441;-81
2022/07/09 10:29:27;;;;;;;2.80;1.60;;;29.40;46.30;;;;;;5040768;28;20448;-80
2022/07/09 10:31:54;;;;;;;1.97;1.50;;;28.00;47.90;;;;;;5038105;28;20428;-82
2022/07/09 10:34:54;;;;;;;3.33;1.60;;;26.40;50.10;;;;;;5034149;28;20598;-81
2022/07/09 10:37:30;;;;;;;2.10;1.87;;;27.40;53.80;;;;;;5030092;28;20465;-84
2022/07/09 10:39:56;;;;;;;1.87;1.47;;;28.20;48.60;;;;;;5028466;28;20441;-81
2022/07/09 10:42:25;;;;;;;3.63;1.00;;;27.60;50.50;;;;;;5023572;28;20446;-81
2022/07/09 10:44:51;;;;;;;3.57;1.37;;;27.00;50.80;;;;;;5025084;28;20209;-85
2022/07/09 10:47:17;;;;;;;2.77;1.30;;;26.70;52.10;;;;;;5027571;28;20500;-82
2022/07/09 10:49:43;;;;;;;3.53;1.40;;;26.20;50.40;;;;;;5023431;28;20243;-81
2022/07/09 10:52:09;;;;;;;2.17;1.00;;;25.70;51.60;;;;;;5022095;28;20436;-86
2022/07/09 10:54:46;;;;;;;1.20;1.07;;;26.30;53.30;;;;;;5023009;28;20207;-81
2022/07/09 10:57:13;;;;;;;3.60;1.63;;;27.20;54.00;;;;;;5016492;28;20435;-77
2022/07/09 10:59:38;;;;;;;2.87;1.33;;;27.80;52.70;;;;;;5017508;28;20674;-77
2022/07/09 11:02:04;;;;;;;7.23;1.67;;;27.20;53.30;;;;;;5025306;28;20830;-77
2022/07/09 11:04:31;;;;;;;2.93;1.40;;;26.60;53.90;;;;;;5026526;28;20203;-86
2022/07/09 11:06:58;;;;;;;3.60;1.30;;;26.60;54.80;;;;;;5031682;28;20262;-85
2022/07/09 11:09:28;;;;;;;1.80;1.10;;;26.40;55.30;;;;;;5040403;28;20449;-85
2022/07/09 11:11:53;;;;;;;3.20;1.40;;;26.50;53.80;;;;;;5020197;28;20515;-82
2022/07/09 11:14:19;;;;;;;1.53;1.23;;;26.50;54.00;;;;;;5028842;28;20465;-84
2022/07/09 11:16:58;;;;;;;1.87;1.10;;;27.10;54.00;;;;;;5020657;28;20211;-83
2022/07/09 11:19:24;;;;;;;4.73;1.50;;;27.10;53.60;;;;;;5029132;28;20298;-87
2022/07/09 11:21:59;;;;;;;1.97;1.00;;;26.80;54.50;;;;;;5031603;28;20521;-87
2022/07/09 11:24:26;;;;;;;4.00;1.20;;;26.20;54.50;;;;;;5036569;28;20205;-84
2022/07/09 11:26:51;;;;;;;3.13;0.90;;;26.20;55.80;;;;;;5023505;28;20468;-87
2022/07/09 11:29:17;;;;;;;1.73;1.10;;;26.00;56.80;;;;;;5036053;28;20440;-84
2022/07/09 11:31:48;;;;;;;3.80;2.23;;;26.00;56.00;;;;;;5039451;28;20193;-85
2022/07/09 11:34:15;;;;;;;1.77;1.40;;;26.10;56.20;;;;;;5036357;28;20205;-84
2022/07/09 11:36:43;;;;;;;2.20;1.30;;;26.40;53.90;;;;;;5034949;28;20460;-86
2022/07/09 11:39:09;;;;;;;2.30;1.20;;;27.50;54.30;;;;;;5037857;28;20423;-86
2022/07/09 11:41:44;;;;;;;1.57;1.40;;;28.40;52.80;;;;;;5039391;28;20840;-88
2022/07/09 11:44:14;;;;;;;1.40;1.20;;;28.10;51.30;;;;;;5036441;28;20717;-89
2022/07/09 11:46:40;;;;;;;1.87;1.60;;;28.00;51.40;;;;;;5045028;28;20494;-86
2022/07/09 11:49:15;;;;;;;3.93;1.60;;;28.30;50.10;;;;;;5048368;28;20448;-86
2022/07/09 11:51:41;;;;;;;2.90;1.40;;;28.10;50.40;;;;;;5052220;28;20177;-83
2022/07/09 11:54:07;;;;;;;9.83;1.47;;;27.90;51.50;;;;;;5039050;28;20455;-83
2022/07/09 11:56:45;;;;;;;3.83;1.60;;;28.30;52.10;;;;;;5024834;28;20498;-86
2022/07/09 11:59:11;;;;;;;4.43;1.70;;;29.20;49.90;;;;;;5023926;28;20525;-85
2022/07/09 12:01:38;;;;;;;3.67;1.60;;;28.30;49.60;;;;;;5033809;28;20438;-86
2022/07/09 12:04:03;;;;;;;3.93;2.03;;;28.30;50.60;;;;;;5032989;28;20746;-88
2022/07/09 12:06:29;;;;;;;2.80;1.80;;;27.20;50.90;;;;;;5031415;28;20983;-87
2022/07/09 12:09:02;;;;;;;3.10;1.77;;;27.10;52.30;;;;;;5032717;28;20249;-86
2022/07/09 12:11:31;;;;;;;3.10;1.83;;;27.20;52.30;;;;;;5035563;28;20199;-85
2022/07/09 12:13:57;;;;;;;5.77;1.77;;;26.70;51.30;;;;;;5032320;28;20453;-87
2022/07/09 12:16:24;;;;;;;4.10;1.53;;;;;;;;;;5039406;28;20476;-87
2022/07/09 12:18:49;;;;;;;3.00;1.73;;;26.80;52.50;;;;;;5040479;28;20430;-85
2022/07/09 12:21:15;;;;;;;2.47;1.87;;;28.40;54.10;;;;;;5035260;28;20432;-85
2022/07/09 12:23:40;;;;;;;2.20;2.00;;;28.50;53.70;;;;;;5056754;28;20216;-84
2022/07/09 12:26:06;;;;;;;3.70;2.20;;;27.50;52.40;;;;;;5044165;28;20192;-88
2022/07/09 12:28:32;;;;;;;7.17;3.40;;;;;;;;;;5044673;28;20187;-85
2022/07/09 12:30:58;;;;;;;3.67;2.53;;;27.50;55.20;;;;;;5042657;28;20452;-86
2022/07/09 12:33:23;;;;;;;2.47;2.17;;;27.90;55.00;;;;;;5035910;28;20568;-86
2022/07/09 12:35:49;;;;;;;3.40;2.03;;;27.90;55.40;;;;;;5038683;28;20233;-83
2022/07/09 12:38:15;;;;;;;3.43;1.53;;;28.20;57.40;;;;;;5031662;28;20180;-87
2022/07/09 12:40:40;;;;;;;2.70;2.40;;;;;;;;;;5029565;28;20184;-89